sensor_id;sensor_type;location;lat;lon;timestamp;temperature;humidity
10010;DHT22;5044;48.652;9.250;2023-07-30T16:53:27;20.80;72.10
10010;DHT22;5044;48.652;9.250;2023-07-30T16:55:54;20.70;72.30
10010;DHT22;5044;48.652;9.250;2023-07-30T16:58:23;20.80;81.50
10010;DHT22;5044;48.652;9.250;2023-07-30T17:00:58;20.70;70.70
10010;DHT22;5044;48.652;9.250;2023-07-30T17:03:40;20.60;72.50
10010;DHT22;5044;48.652;9.250;2023-07-30T17:06:08;20.50;73.40
10010;DHT22;5044;48.652;9.250;2023-07-30T17:08:57;20.50;65.80
10010;DHT22;5044;48.652;9.250;2023-07-30T17:11:31;20.30;66.70
10010;DHT22;5044;48.652;9.250;2023-07-30T17:13:59;20.40;71.70
10010;DHT22;5044;48.652;9.250;2023-07-30T17:16:26;20.50;70.70
10010;DHT22;5044;48.652;9.250;2023-07-30T17:18:55;20.60;72.80
10010;DHT22;5044;48.652;9.250;2023-07-30T17:21:23;20.50;69.00
10010;DHT22;5044;48.652;9.250;2023-07-30T17:23:53;20.50;71.00
10010;DHT22;5044;48.652;9.250;2023-07-30T17:26:20;20.50;69.10
10010;DHT22;5044;48.652;9.250;2023-07-30T17:28:49;20.40;69.00
10010;DHT22;5044;48.652;9.250;2023-07-30T17:31:16;20.40;71.70
10010;DHT22;5044;48.652;9.250;2023-07-30T17:33:43;20.40;75.60
10010;DHT22;5044;48.652;9.250;2023-07-30T17:36:10;20.40;71.80
10010;DHT22;5044;48.652;9.250;2023-07-30T17:38:37;20.40;73.10
10010;DHT22;5044;48.652;9.250;2023-07-30T17:41:06;20.20;71.00
10010;DHT22;5044;48.652;9.250;2023-07-30T17:43:35;20.20;72.40
10010;DHT22;5044;48.652;9.250;2023-07-30T17:46:04;20.10;71.80
10010;DHT22;5044;48.652;9.250;2023-07-30T17:48:32;20.00;77.10
10010;DHT22;5044;48.652;9.250;2023-07-30T17:50:59;20.00;76.10
10010;DHT22;5044;48.652;9.250;2023-07-30T17:53:27;19.90;75.00
10010;DHT22;5044;48.652;9.250;2023-07-30T17:55:55;19.70;68.20
10010;DHT22;5044;48.652;9.250;2023-07-30T17:58:27;19.60;67.00
10010;DHT22;5044;48.652;9.250;2023-07-30T18:00:54;19.60;70.40
10010;DHT22;5044;48.652;9.250;2023-07-30T18:03:21;19.70;73.10
10010;DHT22;5044;48.652;9.250;2023-07-30T18:05:48;19.50;75.10
10010;DHT22;5044;48.652;9.250;2023-07-30T18:08:16;19.50;72.00
10010;DHT22;5044;48.652;9.250;2023-07-30T18:10:44;19.50;78.00
10010;DHT22;5044;48.652;9.250;2023-07-30T18:13:12;19.50;76.30
10010;DHT22;5044;48.652;9.250;2023-07-30T18:15:45;19.50;72.00
10010;DHT22;5044;48.652;9.250;2023-07-30T18:18:12;19.50;78.80
10010;DHT22;5044;48.652;9.250;2023-07-30T18:20:40;19.40;78.50
10010;DHT22;5044;48.652;9.250;2023-07-30T18:23:08;19.40;79.10
10010;DHT22;5044;48.652;9.250;2023-07-30T18:25:35;19.30;78.30
10010;DHT22;5044;48.652;9.250;2023-07-30T18:28:03;19.30;74.50
10010;DHT22;5044;48.652;9.250;2023-07-30T18:30:31;19.30;76.30
10010;DHT22;5044;48.652;9.250;2023-07-30T18:32:59;19.20;77.90
10010;DHT22;5044;48.652;9.250;2023-07-30T18:35:26;19.20;82.10
10010;DHT22;5044;48.652;9.250;2023-07-30T18:37:53;19.20;77.50
10010;DHT22;5044;48.652;9.250;2023-07-30T18:40:20;19.10;82.00
10010;DHT22;5044;48.652;9.250;2023-07-30T18:42:48;19.10;80.40
10010;DHT22;5044;48.652;9.250;2023-07-30T18:45:15;19.10;75.60
10010;DHT22;5044;48.652;9.250;2023-07-30T18:47:42;19.10;88.50
10010;DHT22;5044;48.652;9.250;2023-07-30T18:50:11;19.00;81.60
10010;DHT22;5044;48.652;9.250;2023-07-30T18:52:38;19.00;86.60
10010;DHT22;5044;48.652;9.250;2023-07-30T18:55:05;18.90;88.10
10010;DHT22;5044;48.652;9.250;2023-07-30T18:57:32;19.00;83.80
10010;DHT22;5044;48.652;9.250;2023-07-30T18:59:59;19.00;87.90
10010;DHT22;5044;48.652;9.250;2023-07-30T19:02:26;19.00;85.40
10010;DHT22;5044;48.652;9.250;2023-07-30T19:04:53;19.00;86.70
10010;DHT22;5044;48.652;9.250;2023-07-30T19:07:22;19.00;89.30
10010;DHT22;5044;48.652;9.250;2023-07-30T19:09:49;19.00;87.40
10010;DHT22;5044;48.652;9.250;2023-07-30T19:12:16;18.80;85.90
10010;DHT22;5044;48.652;9.250;2023-07-30T19:14:43;18.90;86.90
10010;DHT22;5044;48.652;9.250;2023-07-30T19:17:10;18.80;88.50
10010;DHT22;5044;48.652;9.250;2023-07-30T19:19:37;18.80;90.40
10010;DHT22;5044;48.652;9.250;2023-07-30T19:22:04;18.80;89.80
10010;DHT22;5044;48.652;9.250;2023-07-30T19:24:32;18.70;90.80
10010;DHT22;5044;48.652;9.250;2023-07-30T19:26:59;18.60;90.40
10010;DHT22;5044;48.652;9.250;2023-07-30T19:29:26;18.40;88.90
10010;DHT22;5044;48.652;9.250;2023-07-30T19:31:54;18.40;90.10
10010;DHT22;5044;48.652;9.250;2023-07-30T19:34:21;18.40;88.20
10010;DHT22;5044;48.652;9.250;2023-07-30T19:36:48;18.30;87.60
10010;DHT22;5044;48.652;9.250;2023-07-30T19:39:15;18.10;88.80
10010;DHT22;5044;48.652;9.250;2023-07-30T19:41:43;18.20;92.00
10010;DHT22;5044;48.652;9.250;2023-07-30T19:44:10;18.30;91.00
10010;DHT22;5044;48.652;9.250;2023-07-30T19:46:37;18.30;92.80
10010;DHT22;5044;48.652;9.250;2023-07-30T19:49:05;18.20;91.50
10010;DHT22;5044;48.652;9.250;2023-07-30T19:51:32;18.20;89.40
10010;DHT22;5044;48.652;9.250;2023-07-30T19:53:59;18.20;93.80
10010;DHT22;5044;48.652;9.250;2023-07-30T19:56:26;18.20;90.80
10010;DHT22;5044;48.652;9.250;2023-07-30T19:58:55;18.30;94.10
10010;DHT22;5044;48.652;9.250;2023-07-30T20:01:22;18.30;92.60
10010;DHT22;5044;48.652;9.250;2023-07-30T20:03:50;18.30;93.40
10010;DHT22;5044;48.652;9.250;2023-07-30T20:06:17;18.20;94.90
10010;DHT22;5044;48.652;9.250;2023-07-30T20:08:44;18.10;94.40
10010;DHT22;5044;48.652;9.250;2023-07-30T20:11:11;17.90;93.30
10010;DHT22;5044;48.652;9.250;2023-07-30T20:13:38;18.00;94.90
10010;DHT22;5044;48.652;9.250;2023-07-30T20:16:12;17.90;97.70
10010;DHT22;5044;48.652;9.250;2023-07-30T20:18:39;17.90;98.50
10010;DHT22;5044;48.652;9.250;2023-07-30T23:32:31;15.40;99.90
